Time;durP1;ratioP1;P1;durP2;ratioP2;P2;SDS_P1;SDS_P2;PMS_P1;PMS_P2;Temp;Humidity;BMP_temperature;BMP_pressure;BME280_temperature;BME280_humidity;BME280_pressure;Samples;Min_cycle;Max_cycle;Signal;HPM_P1;HPM_P2
2023/03/25 00:03:21;;;;;;;;;;;9.21;13.23;;;;;;2672392;76;20848;-91
2023/03/25 00:06:49;;;;;;;;;;;9.19;13.18;;;;;;2672872;76;20319;-91
2023/03/25 00:10:19;;;;;;;;;;;9.15;13.36;;;;;;2672540;76;20873;-91
2023/03/25 00:13:52;;;;;;;;;;;9.03;13.17;;;;;;2672439;76;20679;-91
2023/03/25 00:17:19;;;;;;;;;;;9.09;13.39;;;;;;2672012;76;20810;-91
2023/03/25 00:20:48;;;;;;;;;;;9.12;13.28;;;;;;2672668;76;20465;-91
2023/03/25 00:24:16;;;;;;;;;;;9.09;13.00;;;;;;2672471;76;20467;-91
2023/03/25 00:27:45;;;;;;;;;;;9.11;12.88;;;;;;2672856;76;20913;-91
2023/03/25 00:31:50;;;;;;;;;;;9.14;12.54;;;;;;2672260;76;20452;-91
2023/03/25 00:35:02;;;;;;;;;;;9.18;11.91;;;;;;2671975;76;20300;-91
2023/03/25 00:42:24;;;;;;;;;;;9.23;11.74;;;;;;2672917;76;20358;-91
2023/03/25 00:45:49;;;;;;;;;;;9.33;11.73;;;;;;2671414;76;20341;-92
2023/03/25 00:49:17;;;;;;;;;;;9.38;11.88;;;;;;2672036;76;20307;-92
2023/03/25 00:52:45;;;;;;;;;;;9.38;11.77;;;;;;2672681;76;20304;-92
2023/03/25 00:56:13;;;;;;;;;;;9.44;11.64;;;;;;2672945;76;20310;-91
2023/03/25 00:59:41;;;;;;;;;;;9.51;11.60;;;;;;2671517;76;20908;-92
2023/03/25 01:03:11;;;;;;;;;;;9.31;10.82;;;;;;2672449;76;20824;-92
2023/03/25 01:06:50;;;;;;;;;;;9.26;10.31;;;;;;2672476;76;20339;-92
2023/03/25 01:10:10;;;;;;;;;;;9.44;9.64;;;;;;2672907;76;20400;-92
2023/03/25 01:13:38;;;;;;;;;;;9.48;9.48;;;;;;2671418;76;20415;-91
2023/03/25 01:17:07;;;;;;;;;;;9.60;9.26;;;;;;2672780;76;20887;-91
2023/03/25 01:20:35;;;;;;;;;;;9.75;9.52;;;;;;2673206;76;20452;-92
2023/03/25 01:24:05;;;;;;;;;;;9.77;9.11;;;;;;2672434;76;20475;-91
2023/03/25 01:27:33;;;;;;;;;;;9.84;8.50;;;;;;2672187;76;20463;-91
2023/03/25 01:31:01;;;;;;;;;;;9.94;7.67;;;;;;2672980;76;20443;-92
2023/03/25 01:34:29;;;;;;;;;;;10.00;6.65;;;;;;2672854;76;20462;-92
2023/03/25 01:37:57;;;;;;;;;;;10.11;6.42;;;;;;2672184;76;20433;-92
2023/03/25 01:41:25;;;;;;;;;;;10.13;6.12;;;;;;2672611;76;20420;-92
2023/03/25 01:44:56;;;;;;;;;;;10.23;6.26;;;;;;2672294;76;20417;-92
2023/03/25 01:48:23;;;;;;;;;;;10.18;6.17;;;;;;2672393;76;20425;-91
2023/03/25 01:51:51;;;;;;;;;;;10.21;6.54;;;;;;2672124;76;20463;-92
2023/03/25 01:55:20;;;;;;;;;;;10.09;6.21;;;;;;2672402;76;20472;-92
2023/03/25 01:58:48;;;;;;;;;;;10.13;6.28;;;;;;2672166;76;20457;-92
2023/03/25 02:02:17;;;;;;;;;;;10.19;6.31;;;;;;2671902;76;20406;-92
2023/03/25 02:05:45;;;;;;;;;;;10.11;6.15;;;;;;2672282;76;20349;-92
2023/03/25 02:09:13;;;;;;;;;;;10.19;6.30;;;;;;2672508;76;20310;-92
2023/03/25 02:12:44;;;;;;;;;;;10.18;5.89;;;;;;2672087;76;21283;-92
2023/03/25 02:16:12;;;;;;;;;;;10.19;5.52;;;;;;2671721;76;20337;-92
2023/03/25 02:19:41;;;;;;;;;;;10.27;5.55;;;;;;2672515;76;20756;-92
2023/03/25 02:23:09;;;;;;;;;;;10.21;5.43;;;;;;2671807;76;20416;-89
2023/03/25 02:26:40;;;;;;;;;;;10.22;5.51;;;;;;2672228;76;20437;-91
2023/03/25 02:30:11;;;;;;;;;;;10.23;5.84;;;;;;2671746;76;21175;-91
2023/03/25 02:33:39;;;;;;;;;;;10.04;5.33;;;;;;2672218;76;20440;-92
2023/03/25 02:37:09;;;;;;;;;;;9.93;5.53;;;;;;2672306;76;20810;-91
2023/03/25 02:40:37;;;;;;;;;;;9.83;5.64;;;;;;2672420;76;20307;-91
2023/03/25 02:44:05;;;;;;;;;;;9.78;5.70;;;;;;2671746;76;20315;-91
2023/03/25 02:47:34;;;;;;;;;;;9.54;5.99;;;;;;2672374;76;20415;-91
2023/03/25 02:51:02;;;;;;;;;;;9.50;5.83;;;;;;2672339;76;20689;-90
2023/03/25 02:54:32;;;;;;;;;;;9.46;5.68;;;;;;2672151;76;20458;-91
2023/03/25 02:58:00;;;;;;;;;;;9.68;5.22;;;;;;2671541;76;20427;-91
2023/03/25 03:01:28;;;;;;;;;;;9.80;4.68;;;;;;2671414;76;20446;-91
2023/03/25 03:04:56;;;;;;;;;;;9.81;4.01;;;;;;2672073;76;20417;-88
2023/03/25 03:08:25;;;;;;;;;;;9.74;3.91;;;;;;2672418;76;20373;-91
2023/03/25 03:11:53;;;;;;;;;;;9.79;4.03;;;;;;2672769;76;20422;-91
2023/03/25 03:15:21;;;;;;;;;;;9.67;4.13;;;;;;2672471;76;20426;-92
2023/03/25 03:18:50;;;;;;;;;;;9.55;4.28;;;;;;2672729;76;20433;-91
2023/03/25 03:22:19;;;;;;;;;;;9.27;4.71;;;;;;2672499;76;20332;-91
2023/03/25 03:25:47;;;;;;;;;;;9.18;5.27;;;;;;2672789;76;20308;-91
2023/03/25 03:29:15;;;;;;;;;;;8.97;5.61;;;;;;2671898;76;20611;-92
2023/03/25 03:32:44;;;;;;;;;;;8.87;5.95;;;;;;2671997;76;20430;-91
2023/03/25 03:36:12;;;;;;;;;;;8.79;6.29;;;;;;2672686;76;20462;-91
2023/03/25 03:39:40;;;;;;;;;;;8.70;6.55;;;;;;2672447;76;20427;-90
2023/03/25 03:43:09;;;;;;;;;;;8.60;6.64;;;;;;2672096;76;20341;-91
2023/03/25 03:46:37;;;;;;;;;;;8.53;6.99;;;;;;2672338;76;20757;-91
2023/03/25 03:50:06;;;;;;;;;;;8.53;6.86;;;;;;2671988;76;21295;-91
2023/03/25 03:53:34;;;;;;;;;;;8.49;6.92;;;;;;2672384;76;20429;-91
2023/03/25 03:57:02;;;;;;;;;;;8.51;7.28;;;;;;2672474;76;20445;-89
2023/03/25 04:00:30;;;;;;;;;;;8.50;7.27;;;;;;2672217;76;20439;-91
2023/03/25 04:03:58;;;;;;;;;;;8.60;7.11;;;;;;2671906;76;20316;-91
2023/03/25 04:07:26;;;;;;;;;;;8.56;7.05;;;;;;2672479;76;20348;-90
2023/03/25 04:10:57;;;;;;;;;;;8.50;6.80;;;;;;2673082;76;20337;-90
2023/03/25 04:14:24;;;;;;;;;;;8.60;6.89;;;;;;2672404;76;20475;-91
2023/03/25 04:17:52;;;;;;;;;;;8.51;6.88;;;;;;2672136;76;20876;-92
2023/03/25 04:21:20;;;;;;;;;;;8.63;6.81;;;;;;2672580;76;20919;-91
2023/03/25 04:24:53;;;;;;;;;;;8.56;6.51;;;;;;2671277;76;20831;-91
2023/03/25 04:28:22;;;;;;;;;;;8.56;6.18;;;;;;2672091;76;20342;-91
2023/03/25 04:31:54;;;;;;;;;;;8.53;5.88;;;;;;2672291;76;20434;-91
2023/03/25 04:35:20;;;;;;;;;;;8.55;5.73;;;;;;2672236;76;20435;-90
2023/03/25 04:38:51;;;;;;;;;;;8.63;5.60;;;;;;2672301;76;20873;-91
2023/03/25 04:42:20;;;;;;;;;;;8.70;5.09;;;;;;2671972;76;20417;-91
2023/03/25 04:45:52;;;;;;;;;;;8.77;4.62;;;;;;2671487;76;20500;-91
2023/03/25 04:49:19;;;;;;;;;;;8.77;3.96;;;;;;2672121;76;20323;-91
2023/03/25 04:52:48;;;;;;;;;;;8.79;3.47;;;;;;2671992;76;20868;-91
2023/03/25 04:56:19;;;;;;;;;;;8.79;3.32;;;;;;2672382;76;20461;-91
2023/03/25 04:59:47;;;;;;;;;;;8.95;3.29;;;;;;2671774;76;20866;-91
2023/03/25 05:03:15;;;;;;;;;;;8.91;3.04;;;;;;2672169;76;20436;-91
2023/03/25 05:06:43;;;;;;;;;;;8.98;2.96;;;;;;2672540;76;20781;-91
2023/03/25 05:10:11;;;;;;;;;;;9.03;2.57;;;;;;2672063;76;20440;-91
2023/03/25 05:13:39;;;;;;;;;;;9.07;2.53;;;;;;2673908;76;20433;-91
2023/03/25 05:17:08;;;;;;;;;;;9.10;2.42;;;;;;2672439;76;20426;-91
2023/03/25 05:20:38;;;;;;;;;;;9.00;2.49;;;;;;2671855;76;20561;-90
2023/03/25 05:24:07;;;;;;;;;;;9.14;2.29;;;;;;2672460;76;20309;-90
2023/03/25 05:27:35;;;;;;;;;;;9.25;1.69;;;;;;2672680;76;20477;-90
2023/03/25 05:31:07;;;;;;;;;;;9.38;1.39;;;;;;2671939;76;20479;-91
2023/03/25 05:34:33;;;;;;;;;;;9.62;0.90;;;;;;2671479;76;20426;-91
2023/03/25 05:38:01;;;;;;;;;;;9.77;0.20;;;;;;2672103;76;20439;-91
2023/03/25 05:41:37;;;;;;;;;;;9.79;-0.02;;;;;;2672336;76;20494;-91
2023/03/25 05:45:02;;;;;;;;;;;9.80;-0.37;;;;;;2671796;76;20431;-91
2023/03/25 05:48:31;;;;;;;;;;;9.82;-0.37;;;;;;2672031;76;20436;-91
2023/03/25 05:52:00;;;;;;;;;;;9.82;-0.54;;;;;;2670023;76;20439;-91
2023/03/25 05:55:31;;;;;;;;;;;9.80;0.00;;;;;;2672514;76;20428;-91
2023/03/25 05:58:59;;;;;;;;;;;9.64;0.52;;;;;;2672175;76;20407;-91
2023/03/25 06:02:27;;;;;;;;;;;9.59;0.73;;;;;;2671700;76;20458;-91
2023/03/25 06:05:56;;;;;;;;;;;9.80;0.71;;;;;;2672096;76;20395;-92
2023/03/25 06:09:24;;;;;;;;;;;9.79;0.43;;;;;;2672056;76;20536;-92
2023/03/25 06:12:55;;;;;;;;;;;9.84;0.45;;;;;;2671803;76;20464;-92
2023/03/25 06:16:26;;;;;;;;;;;9.91;0.52;;;;;;2671876;76;20711;-90
2023/03/25 06:19:53;;;;;;;;;;;10.10;0.23;;;;;;2671983;76;20467;-92
2023/03/25 06:23:22;;;;;;;;;;;10.22;-0.29;;;;;;2671546;76;20864;-91
2023/03/25 06:26:50;;;;;;;;;;;10.08;-1.46;;;;;;2671794;76;20501;-91
2023/03/25 06:30:18;;;;;;;;;;;10.15;-1.17;;;;;;2671568;76;20316;-91
2023/03/25 06:33:46;;;;;;;;;;;10.10;-2.11;;;;;;2672148;76;20450;-89
2023/03/25 06:37:15;;;;;;;;;;;10.15;-2.58;;;;;;2671542;76;20430;-91
2023/03/25 06:40:43;;;;;;;;;;;9.96;-2.88;;;;;;2671842;76;20465;-91
2023/03/25 06:44:11;;;;;;;;;;;9.94;-3.20;;;;;;2671902;76;20933;-91
2023/03/25 06:47:40;;;;;;;;;;;10.08;-3.68;;;;;;2671903;76;20463;-91
2023/03/25 06:51:08;;;;;;;;;;;10.22;-4.04;;;;;;2671814;76;20428;-91
2023/03/25 06:54:36;;;;;;;;;;;10.36;-4.95;;;;;;2671847;76;20482;-90
2023/03/25 06:58:04;;;;;;;;;;;10.60;-5.14;;;;;;2671400;76;20481;-91
2023/03/25 07:01:32;;;;;;;;;;;10.68;-5.53;;;;;;2670513;76;20488;-91
2023/03/25 07:05:00;;;;;;;;;;;10.75;-5.82;;;;;;2670635;76;20477;-91
2023/03/25 07:08:29;;;;;;;;;;;10.54;118.47;;;;;;2671753;76;20448;-90
2023/03/25 07:11:57;;;;;;;;;;;10.37;118.51;;;;;;2672043;76;20416;-91
2023/03/25 07:15:27;;;;;;;;;;;10.39;-5.66;;;;;;2671598;76;20471;-91
2023/03/25 07:18:56;;;;;;;;;;;10.05;-5.48;;;;;;2672180;76;20488;-91
2023/03/25 07:22:24;;;;;;;;;;;9.71;-4.79;;;;;;2671526;76;20446;-91
2023/03/25 07:25:52;;;;;;;;;;;9.60;-4.09;;;;;;2671166;76;20402;-92
2023/03/25 07:29:20;;;;;;;;;;;10.06;-3.62;;;;;;2670725;76;20415;-91
2023/03/25 07:32:48;;;;;;;;;;;10.11;-3.58;;;;;;2672223;76;20443;-91
2023/03/25 07:36:16;;;;;;;;;;;10.07;-3.19;;;;;;2670974;76;20423;-91
2023/03/25 07:39:45;;;;;;;;;;;9.79;-2.83;;;;;;2670215;76;20505;-86
2023/03/25 07:43:13;;;;;;;;;;;9.86;-2.67;;;;;;2670016;76;20925;-88
2023/03/25 07:46:41;;;;;;;;;;;10.09;-2.96;;;;;;2670853;76;20361;-87
2023/03/25 07:50:09;;;;;;;;;;;10.60;-3.00;;;;;;2670051;76;20399;-88
2023/03/25 07:53:39;;;;;;;;;;;10.86;-3.76;;;;;;2670874;76;20778;-87
2023/03/25 07:57:07;;;;;;;;;;;10.81;-3.74;;;;;;2669442;76;20460;-87
2023/03/25 08:00:35;;;;;;;;;;;10.57;-3.37;;;;;;2670688;76;20447;-87
2023/03/25 08:04:03;;;;;;;;;;;10.46;-3.05;;;;;;2671734;76;20587;-86
2023/03/25 08:07:31;;;;;;;;;;;10.82;-3.11;;;;;;2671053;76;20505;-87
2023/03/25 08:11:00;;;;;;;;;;;10.90;-3.99;;;;;;2670940;76;20438;-87
2023/03/25 08:14:28;;;;;;;;;;;10.90;-3.60;;;;;;2670613;76;20449;-87
2023/03/25 08:17:56;;;;;;;;;;;10.89;-3.24;;;;;;2670137;76;20438;-87
2023/03/25 08:21:26;;;;;;;;;;;10.92;-3.10;;;;;;2670191;76;20422;-87
2023/03/25 08:24:54;;;;;;;;;;;11.14;-3.69;;;;;;2671027;76;20447;-87
2023/03/25 08:28:22;;;;;;;;;;;11.33;-3.47;;;;;;2670048;76;20431;-88
2023/03/25 08:31:51;;;;;;;;;;;11.94;-4.20;;;;;;2667894;76;20542;-87
2023/03/25 08:35:19;;;;;;;;;;;12.43;-5.11;;;;;;2668862;76;20469;-88
2023/03/25 08:38:47;;;;;;;;;;;12.70;118.39;;;;;;2672423;76;20324;-88
2023/03/25 08:42:15;;;;;;;;;;;12.48;117.61;;;;;;2672632;76;20783;-88
2023/03/25 08:45:43;;;;;;;;;;;12.50;116.83;;;;;;2672191;76;20818;-87
2023/03/25 08:49:12;;;;;;;;;;;12.61;116.31;;;;;;2672491;76;20489;-88
2023/03/25 08:52:40;;;;;;;;;;;12.74;116.66;;;;;;2672980;76;20873;-87
2023/03/25 08:56:09;;;;;;;;;;;12.48;116.70;;;;;;2672073;76;20436;-87
2023/03/25 08:59:37;;;;;;;;;;;12.36;116.48;;;;;;2672609;76;20434;-87
2023/03/25 09:03:05;;;;;;;;;;;12.35;117.00;;;;;;2672806;76;20987;-87
2023/03/25 09:06:34;;;;;;;;;;;12.02;117.14;;;;;;2672987;76;20444;-87
2023/03/25 09:10:02;;;;;;;;;;;11.73;117.38;;;;;;2672267;76;20323;-88
2023/03/25 09:13:31;;;;;;;;;;;12.15;117.99;;;;;;2672763;76;20309;-87
2023/03/25 09:16:59;;;;;;;;;;;12.71;117.14;;;;;;2672313;76;20439;-88
2023/03/25 09:20:27;;;;;;;;;;;12.31;116.92;;;;;;2672753;76;20354;-88
2023/03/25 09:23:55;;;;;;;;;;;12.03;117.06;;;;;;2672251;76;20316;-88
2023/03/25 09:27:23;;;;;;;;;;;12.26;117.56;;;;;;2672265;76;20438;-88
2023/03/25 09:30:51;;;;;;;;;;;12.72;117.83;;;;;;2671912;76;20950;-86
2023/03/25 09:34:20;;;;;;;;;;;12.56;117.47;;;;;;2672118;76;20361;-88
2023/03/25 09:37:48;;;;;;;;;;;12.18;116.83;;;;;;2672877;76;20443;-88
2023/03/25 09:41:16;;;;;;;;;;;12.38;116.87;;;;;;2672041;76;20311;-87
2023/03/25 09:44:44;;;;;;;;;;;12.49;116.39;;;;;;2671567;76;20348;-88
2023/03/25 09:48:12;;;;;;;;;;;13.16;116.19;;;;;;2672621;76;20470;-88
2023/03/25 09:51:40;;;;;;;;;;;13.10;115.12;;;;;;2672146;76;20327;-88
2023/03/25 09:55:08;;;;;;;;;;;13.44;114.50;;;;;;2672328;76;20789;-88
2023/03/25 09:58:36;;;;;;;;;;;14.69;113.45;;;;;;2672790;76;20370;-87
2023/03/25 10:02:05;;;;;;;;;;;14.93;110.67;;;;;;2672436;76;20350;-88
2023/03/25 10:05:33;;;;;;;;;;;15.45;109.74;;;;;;2672722;76;20318;-88
2023/03/25 10:09:01;;;;;;;;;;;15.73;109.19;;;;;;2672204;76;20806;-87
2023/03/25 10:12:29;;;;;;;;;;;15.80;108.39;;;;;;2671995;76;20364;-87
2023/03/25 10:15:57;;;;;;;;;;;15.85;107.86;;;;;;2671580;76;20452;-88
2023/03/25 10:19:25;;;;;;;;;;;16.31;107.79;;;;;;2671631;76;20356;-88
2023/03/25 10:22:53;;;;;;;;;;;15.65;105.79;;;;;;2671892;76;20455;-88
2023/03/25 10:26:22;;;;;;;;;;;15.55;106.21;;;;;;2672334;76;20502;-88
2023/03/25 10:29:50;;;;;;;;;;;15.26;105.75;;;;;;2672191;76;20333;-87
2023/03/25 10:33:18;;;;;;;;;;;15.32;105.30;;;;;;2671916;76;20453;-88
2023/03/25 10:36:49;;;;;;;;;;;15.17;105.18;;;;;;2672455;76;20691;-88
2023/03/25 10:40:18;;;;;;;;;;;15.26;105.48;;;;;;2671911;76;20426;-89
2023/03/25 10:43:46;;;;;;;;;;;15.26;105.41;;;;;;2671240;76;20446;-88
2023/03/25 10:47:15;;;;;;;;;;;14.43;105.89;;;;;;2672192;76;20970;-89
2023/03/25 10:50:48;;;;;;;;;;;14.36;107.48;;;;;;2672383;76;20890;-89
2023/03/25 10:54:16;;;;;;;;;;;13.56;109.17;;;;;;2672267;76;20456;-88
2023/03/25 10:57:44;;;;;;;;;;;13.63;110.09;;;;;;2671723;76;20940;-89
2023/03/25 11:01:12;;;;;;;;;;;13.43;110.04;;;;;;2672057;76;20426;-89
2023/03/25 11:04:40;;;;;;;;;;;13.47;110.52;;;;;;2671455;76;20485;-88
2023/03/25 11:08:09;;;;;;;;;;;13.33;109.84;;;;;;2672868;76;20428;-89
2023/03/25 11:11:37;;;;;;;;;;;12.95;110.00;;;;;;2672435;76;20471;-89
2023/03/25 11:18:52;;;;;;;;;;;13.74;110.70;;;;;;2672447;76;20307;-89
2023/03/25 11:22:22;;;;;;;;;;;14.25;110.07;;;;;;2672292;76;20345;-90
2023/03/25 11:26:01;;;;;;;;;;;14.63;108.90;;;;;;2672794;76;20802;-89
2023/03/25 11:29:37;;;;;;;;;;;14.19;108.14;;;;;;2671589;76;20319;-89
2023/03/25 11:33:02;;;;;;;;;;;13.39;108.77;;;;;;2672864;76;20888;-89
2023/03/25 11:40:10;;;;;;;;;;;14.36;109.68;;;;;;2671969;76;20425;-89
2023/03/25 11:43:44;;;;;;;;;;;14.00;108.79;;;;;;2673028;76;20442;-89
2023/03/25 11:47:08;;;;;;;;;;;14.49;108.37;;;;;;2671511;76;20887;-88
2023/03/25 11:50:37;;;;;;;;;;;14.33;107.95;;;;;;2672101;76;20701;-89
2023/03/25 11:54:10;;;;;;;;;;;14.12;107.96;;;;;;2671665;76;20818;-89
2023/03/25 11:57:41;;;;;;;;;;;14.49;108.85;;;;;;2672469;76;20309;-90
2023/03/25 12:01:10;;;;;;;;;;;14.96;108.23;;;;;;2671773;76;20976;-88
2023/03/25 12:04:39;;;;;;;;;;;15.18;107.11;;;;;;2672621;76;20532;-89
2023/03/25 12:08:14;;;;;;;;;;;15.34;106.82;;;;;;2671931;76;20418;-88
2023/03/25 12:11:39;;;;;;;;;;;14.70;107.75;;;;;;2671515;76;20477;-89
2023/03/25 12:15:16;;;;;;;;;;;14.00;108.43;;;;;;2671392;76;20356;-88
2023/03/25 12:18:54;;;;;;;;;;;13.54;108.55;;;;;;2671376;76;20816;-89
2023/03/25 12:22:22;;;;;;;;;;;14.69;108.89;;;;;;2672457;76;20337;-89
2023/03/25 12:25:53;;;;;;;;;;;14.66;107.17;;;;;;2672607;76;20809;-88
2023/03/25 12:29:27;;;;;;;;;;;14.72;106.12;;;;;;2672336;76;20423;-89
2023/03/25 12:32:52;;;;;;;;;;;15.13;106.17;;;;;;2671912;76;20471;-88
2023/03/25 12:36:28;;;;;;;;;;;15.07;105.96;;;;;;2671733;76;20428;-89
2023/03/25 12:40:06;;;;;;;;;;;14.70;106.11;;;;;;2672037;76;20468;-89
2023/03/25 12:43:47;;;;;;;;;;;14.32;106.25;;;;;;2672733;76;20332;-89
2023/03/25 12:47:15;;;;;;;;;;;15.19;106.89;;;;;;2672285;76;20778;-89
2023/03/25 12:50:43;;;;;;;;;;;15.10;106.31;;;;;;2672404;76;20302;-88
2023/03/25 12:54:20;;;;;;;;;;;14.68;106.92;;;;;;2671800;76;20491;-89
2023/03/25 12:58:09;;;;;;;;;;;14.39;107.23;;;;;;2672336;76;20474;-89
2023/03/25 13:01:42;;;;;;;;;;;14.11;106.81;;;;;;2672102;76;20344;-89
2023/03/25 13:05:18;;;;;;;;;;;14.06;106.94;;;;;;2672636;76;20322;-89
2023/03/25 13:08:59;;;;;;;;;;;13.83;107.10;;;;;;2672902;76;20458;-89
2023/03/25 13:12:28;;;;;;;;;;;13.85;107.08;;;;;;2672710;76;20464;-89
2023/03/25 13:15:58;;;;;;;;;;;15.01;107.27;;;;;;2672913;76;20445;-90
2023/03/25 13:19:39;;;;;;;;;;;14.82;105.88;;;;;;2673051;76;20378;-90
2023/03/25 13:23:04;;;;;;;;;;;15.11;105.50;;;;;;2672093;76;20443;-90
2023/03/25 13:26:32;;;;;;;;;;;14.44;104.72;;;;;;2672189;76;20911;-90
2023/03/25 13:33:34;;;;;;;;;;;14.81;105.63;;;;;;2671200;76;20433;-89
2023/03/25 13:37:07;;;;;;;;;;;14.92;105.06;;;;;;2673088;76;20316;-90
2023/03/25 13:40:39;;;;;;;;;;;14.45;106.08;;;;;;2672741;76;20423;-89
2023/03/25 13:44:13;;;;;;;;;;;14.60;105.89;;;;;;2672893;76;20531;-89
2023/03/25 13:47:46;;;;;;;;;;;15.00;106.02;;;;;;2672162;76;20882;-89
2023/03/25 13:51:17;;;;;;;;;;;14.67;105.57;;;;;;2672804;76;20968;-88
2023/03/25 13:54:47;;;;;;;;;;;15.32;106.45;;;;;;2673181;76;20456;-88
2023/03/25 13:58:15;;;;;;;;;;;15.43;104.23;;;;;;2672396;76;20452;-90
2023/03/25 14:01:49;;;;;;;;;;;15.27;104.72;;;;;;2671465;76;20431;-88
2023/03/25 14:05:23;;;;;;;;;;;14.82;105.50;;;;;;2672023;76;20418;-89
2023/03/25 14:09:01;;;;;;;;;;;14.32;105.64;;;;;;2672009;76;20876;-90
2023/03/25 14:12:30;;;;;;;;;;;13.73;106.23;;;;;;2672679;76;20466;-89
2023/03/25 14:16:03;;;;;;;;;;;13.56;106.51;;;;;;2671612;76;20450;-89
2023/03/25 14:19:30;;;;;;;;;;;13.41;106.59;;;;;;2673123;76;20439;-89
2023/03/25 14:22:58;;;;;;;;;;;13.50;107.39;;;;;;2676023;76;20328;-89
2023/03/25 14:26:32;;;;;;;;;;;14.37;108.38;;;;;;2682044;76;20332;-89
2023/03/25 14:30:05;;;;;;;;;;;14.79;106.29;;;;;;2676492;76;20456;-90
2023/03/25 14:33:38;;;;;;;;;;;14.67;105.76;;;;;;2672224;76;20450;-90
2023/03/25 14:37:04;;;;;;;;;;;15.09;105.63;;;;;;2672888;76;20518;-89
2023/03/25 14:40:35;;;;;;;;;;;14.82;105.38;;;;;;2672497;76;20464;-90
2023/03/25 14:44:08;;;;;;;;;;;14.15;105.48;;;;;;2672457;76;20474;-89
2023/03/25 14:47:34;;;;;;;;;;;14.59;106.98;;;;;;2674887;76;20461;-89
2023/03/25 14:51:02;;;;;;;;;;;14.18;106.08;;;;;;2674057;76;20890;-89
2023/03/25 14:54:33;;;;;;;;;;;14.29;106.60;;;;;;2672380;76;20755;-89
2023/03/25 14:58:01;;;;;;;;;;;13.77;106.69;;;;;;2672221;76;20914;-89
2023/03/25 15:01:29;;;;;;;;;;;13.89;107.90;;;;;;2672368;76;21033;-90
2023/03/25 15:04:57;;;;;;;;;;;13.48;107.91;;;;;;2672680;76;20445;-90
2023/03/25 15:08:28;;;;;;;;;;;13.38;109.13;;;;;;2672300;76;20335;-89
2023/03/25 15:11:56;;;;;;;;;;;13.53;110.71;;;;;;2671709;76;20788;-90
2023/03/25 15:15:25;;;;;;;;;;;12.59;112.88;;;;;;2671882;76;20458;-89
2023/03/25 15:18:58;;;;;;;;;;;12.59;111.67;;;;;;2672067;76;20411;-89
2023/03/25 15:22:23;;;;;;;;;;;11.61;113.74;;;;;;2672149;76;20854;-89
2023/03/25 15:25:54;;;;;;;;;;;9.75;2.35;;;;;;2673493;76;20467;-91
2023/03/25 15:29:22;;;;;;;;;;;9.09;12.91;;;;;;2673226;76;20453;-90
2023/03/25 15:32:51;;;;;;;;;;;9.18;16.32;;;;;;2671530;76;20461;-91
2023/03/25 15:36:19;;;;;;;;;;;11.40;11.38;;;;;;2670268;76;20433;-92
2023/03/25 15:39:47;;;;;;;;;;;11.29;9.85;;;;;;2666647;76;20456;-91
2023/03/25 15:43:21;;;;;;;;;;;9.61;11.56;;;;;;2670698;76;20315;-91
2023/03/25 15:46:46;;;;;;;;;;;9.06;15.72;;;;;;2671212;76;20311;-93
2023/03/25 15:50:14;;;;;;;;;;;8.78;16.81;;;;;;2671861;76;20980;-93
2023/03/25 15:53:43;;;;;;;;;;;8.82;17.37;;;;;;2671940;76;20442;-92
2023/03/25 15:57:12;;;;;;;;;;;8.90;16.25;;;;;;2669814;76;20707;-92
2023/03/25 16:00:41;;;;;;;;;;;8.94;15.91;;;;;;2670884;76;20340;-93
2023/03/25 16:04:24;;;;;;;;;;;9.21;15.00;;;;;;2674042;76;20465;-94
2023/03/25 16:11:28;;;;;;;;;;;10.62;9.94;;;;;;2668786;76;20327;-95
2023/03/25 16:15:11;;;;;;;;;;;;;;;;;;;;;
2023/03/25 16:18:53;;;;;;;;;;;;;;;;;;;;;
2023/03/25 16:22:48;;;;;;;;;;;;;;;;;;;;;
2023/03/25 16:34:26;;;;;;;;;;;10.14;2.75;;;;;;2672097;76;20343;-93
2023/03/25 16:38:07;;;;;;;;;;;9.86;3.25;;;;;;2672852;76;20462;-93
2023/03/25 16:41:37;;;;;;;;;;;9.82;3.90;;;;;;2671787;76;20440;-93
2023/03/25 16:45:13;;;;;;;;;;;9.82;4.04;;;;;;2675856;76;20442;-93
2023/03/25 16:48:39;;;;;;;;;;;9.76;4.81;;;;;;2676123;76;20326;-94
2023/03/25 16:52:18;;;;;;;;;;;;;;;;;;;;;
2023/03/25 17:06:45;;;;;;;;;;;8.95;11.48;;;;;;2665793;76;20445;-91
2023/03/25 17:10:17;;;;;;;;;;;8.67;15.53;;;;;;2670701;76;20454;-90
2023/03/25 17:13:44;;;;;;;;;;;8.67;17.10;;;;;;2670845;76;20471;-90
2023/03/25 17:17:18;;;;;;;;;;;8.47;16.55;;;;;;2672052;76;20455;-93
2023/03/25 17:20:50;;;;;;;;;;;8.37;17.22;;;;;;2672559;76;20465;-92
2023/03/25 17:24:18;;;;;;;;;;;8.42;17.15;;;;;;2676652;76;20293;-94
2023/03/25 17:27:46;;;;;;;;;;;8.44;17.06;;;;;;2673490;76;20385;-93
2023/03/25 17:31:15;;;;;;;;;;;8.49;16.25;;;;;;2671933;76;20450;-92
2023/03/25 17:34:45;;;;;;;;;;;8.50;16.15;;;;;;2671144;76;20435;-91
2023/03/25 17:38:13;;;;;;;;;;;8.56;14.68;;;;;;2668569;76;20794;-91
2023/03/25 17:41:46;;;;;;;;;;;8.52;13.41;;;;;;2670128;76;20325;-92
2023/03/25 17:45:12;;;;;;;;;;;8.46;13.23;;;;;;2669301;76;20490;-92
2023/03/25 17:48:41;;;;;;;;;;;8.45;12.68;;;;;;2670320;76;20432;-92
2023/03/25 17:52:19;;;;;;;;;;;8.43;13.25;;;;;;2671095;76;20467;-92
2023/03/25 17:55:44;;;;;;;;;;;8.39;13.57;;;;;;2671987;76;20965;-92
2023/03/25 17:59:12;;;;;;;;;;;8.31;13.59;;;;;;2671627;76;20478;-92
2023/03/25 18:02:42;;;;;;;;;;;8.22;13.28;;;;;;2670561;76;20463;-92
2023/03/25 18:06:13;;;;;;;;;;;8.26;13.81;;;;;;2671821;76;20458;-92
2023/03/25 18:09:43;;;;;;;;;;;8.14;13.31;;;;;;2672674;76;20427;-91
2023/03/25 18:13:14;;;;;;;;;;;8.20;12.88;;;;;;2670254;76;20493;-92
2023/03/25 18:16:42;;;;;;;;;;;8.15;12.59;;;;;;2671678;76;20506;-93
2023/03/25 18:20:14;;;;;;;;;;;8.27;12.33;;;;;;2672079;76;20493;-92
2023/03/25 18:23:52;;;;;;;;;;;8.48;10.74;;;;;;2671152;76;20517;-92
2023/03/25 18:27:19;;;;;;;;;;;8.47;9.98;;;;;;2670753;76;20337;-94
2023/03/25 18:30:52;;;;;;;;;;;8.59;10.32;;;;;;2671114;76;20449;-94
2023/03/25 18:34:28;;;;;;;;;;;8.46;10.30;;;;;;2670267;76;20444;-93
2023/03/25 18:37:56;;;;;;;;;;;8.36;11.29;;;;;;2671881;76;20484;-93
2023/03/25 18:41:24;;;;;;;;;;;8.24;11.13;;;;;;2670499;76;20471;-93
2023/03/25 18:44:55;;;;;;;;;;;8.22;11.59;;;;;;2670215;76;20809;-93
2023/03/25 18:48:26;;;;;;;;;;;8.15;11.56;;;;;;2669189;76;20448;-90
2023/03/25 18:52:01;;;;;;;;;;;8.12;11.30;;;;;;2669378;76;20438;-89
2023/03/25 18:55:26;;;;;;;;;;;8.17;11.63;;;;;;2669228;76;20415;-90
2023/03/25 18:58:59;;;;;;;;;;;8.15;11.60;;;;;;2670828;76;20411;-94
2023/03/25 19:02:30;;;;;;;;;;;8.11;11.63;;;;;;2670893;76;20457;-93
2023/03/25 19:06:04;;;;;;;;;;;8.08;11.60;;;;;;2670672;76;20320;-92
2023/03/25 19:09:38;;;;;;;;;;;8.13;11.12;;;;;;2670239;76;21314;-91
2023/03/25 19:13:08;;;;;;;;;;;8.16;11.79;;;;;;2669889;76;20477;-92
2023/03/25 19:16:36;;;;;;;;;;;8.18;11.72;;;;;;2671274;76;20445;-92
2023/03/25 19:20:08;;;;;;;;;;;8.06;11.73;;;;;;2670805;76;20452;-91
2023/03/25 19:23:36;;;;;;;;;;;8.06;12.17;;;;;;2670254;76;20487;-91
2023/03/25 19:27:07;;;;;;;;;;;7.99;12.10;;;;;;2669738;76;20805;-92
2023/03/25 19:30:44;;;;;;;;;;;8.03;11.92;;;;;;2671074;76;20455;-92
2023/03/25 19:34:08;;;;;;;;;;;8.03;11.97;;;;;;2670562;76;20474;-93
2023/03/25 19:37:36;;;;;;;;;;;8.00;11.88;;;;;;2671437;76;20334;-93
2023/03/25 19:41:07;;;;;;;;;;;8.01;12.30;;;;;;2673087;76;20497;-93
2023/03/25 19:44:37;;;;;;;;;;;7.98;12.55;;;;;;2672928;76;20440;-93
2023/03/25 19:48:08;;;;;;;;;;;7.89;12.33;;;;;;2671583;76;20465;-94
2023/03/25 19:51:36;;;;;;;;;;;7.92;12.83;;;;;;2676776;76;20509;-92
2023/03/25 19:55:05;;;;;;;;;;;7.93;12.97;;;;;;2681646;76;20486;-93
2023/03/25 19:58:33;;;;;;;;;;;7.86;13.02;;;;;;2682165;76;20450;-94
2023/03/25 20:02:03;;;;;;;;;;;7.86;12.92;;;;;;2681716;76;20424;-93
2023/03/25 20:05:36;;;;;;;;;;;7.82;12.93;;;;;;2682351;76;20430;-94
2023/03/25 20:09:04;;;;;;;;;;;7.81;13.05;;;;;;2684129;76;20393;-95
2023/03/25 20:12:36;;;;;;;;;;;7.81;12.82;;;;;;2674506;76;20379;-95
2023/03/25 20:16:16;;;;;;;;;;;7.77;12.89;;;;;;2681899;76;20488;-94
2023/03/25 20:20:00;;;;;;;;;;;;;;;;;;;;;
2023/03/25 20:23:32;;;;;;;;;;;7.72;12.78;;;;;;2680534;76;20431;-93
2023/03/25 20:27:05;;;;;;;;;;;7.77;12.89;;;;;;2678101;76;20429;-93
2023/03/25 20:30:34;;;;;;;;;;;7.71;12.58;;;;;;2675252;76;20874;-93
2023/03/25 20:34:08;;;;;;;;;;;7.73;12.65;;;;;;2675138;76;20320;-93
2023/03/25 20:37:35;;;;;;;;;;;7.69;12.61;;;;;;2671516;76;20468;-93
2023/03/25 20:41:25;;;;;;;;;;;7.78;12.63;;;;;;2676565;76;20386;-96
2023/03/25 20:44:53;;;;;;;;;;;7.74;12.37;;;;;;2681771;76;20416;-93
2023/03/25 20:48:21;;;;;;;;;;;7.77;12.48;;;;;;2671820;76;20465;-93
2023/03/25 20:51:54;;;;;;;;;;;7.75;12.42;;;;;;2669651;76;20435;-93
2023/03/25 20:55:36;;;;;;;;;;;;;;;;;;;;;
2023/03/25 20:59:11;;;;;;;;;;;;;;;;;;;;;
2023/03/25 21:02:37;;;;;;;;;;;7.82;12.45;;;;;;2679417;76;20232;-94
2023/03/25 21:06:07;;;;;;;;;;;7.85;12.29;;;;;;2679614;76;20340;-93
2023/03/25 21:09:41;;;;;;;;;;;7.96;12.02;;;;;;2672788;76;20448;-93
2023/03/25 21:13:18;;;;;;;;;;;;;;;;;;;;;
2023/03/25 21:16:56;;;;;;;;;;;7.93;12.28;;;;;;2674025;76;20247;-94
2023/03/25 21:20:31;;;;;;;;;;;7.89;12.14;;;;;;2671699;76;20455;-93